KCBE/CBE METAR and TAF weather

Enter ICAO airport designator
Station Type Date Time Source
KCBE METAR 2020/09/21 09:15 UTC NOAA

KCBE 210915Z AUTO 00000KT 10SM CLR 03/02 A3059 RMK AO2 T00290021


Station Type Date Time Source
KCBE Decoded METAR 2020/09/21 09:15 UTC NOAA

Cumberland, Greater Cumberland Regional Airport, MD, United States (KCBE) 39-36-55N 078-45-39W
Sep 21, 2020 - 05:15 AM EDT / 2020.09.21 0915 UTC
Wind: Calm:0
Visibility: 10 mile(s):0
Sky conditions: clear
Temperature: 37.2 F (2.9 C)
Dew Point: 35.8 F (2.1 C)
Relative Humidity: 94%
Pressure (altimeter): 30.59 in. Hg (1035 hPa)
ob: KCBE 210915Z AUTO 00000KT 10SM CLR 03/02 A3059 RMK AO2 T00290021
cycle: 9

Station Type Date Time Source
KCBE TAF UTC NOAA

Error!

Example: see airport list